Flournoy, Louisiana
Current Conditions -  °F | °C
As of 12:29 AM on Saturday 29 Nov 2014 (Local Time) from KSHV Reporting Station
Overcast Overcast  
Wind Chill: 57°   Ceiling: 900
Heat Index: 57°   Visibility: 10mi
Dew Point: 54°   Wind: 10mph
Humidity: 89%   Direction: 210°SSW
Pressure: 30.07"   Gusts: 22mph
Location:  32.4646°N, 93.8137°W
Report Text: KSHV 290629Z 21009G19KT 10SM OVC009 14/12 A3007 RMK AO2 T01390122
Loading
Personal Weather Stations






























Interactive Weather Map New forecast layout! Learn more

10-Day Weather Forecast

Advertisements
Track Severe Weather on mobile